sensor_id;sensor_type;location;lat;lon;timestamp;temperature;humidity
40630;DHT22;26329;40.388;-3.710;2022-07-15T00:09:31;32.40;15.50
40630;DHT22;26329;40.388;-3.710;2022-07-15T00:19:51;32.20;15.50
40630;DHT22;26329;40.388;-3.710;2022-07-15T00:29:53;32.10;15.40
40630;DHT22;26329;40.388;-3.710;2022-07-15T00:39:55;31.90;15.50
40630;DHT22;26329;40.388;-3.710;2022-07-15T00:49:56;31.80;15.50
40630;DHT22;26329;40.388;-3.710;2022-07-15T01:00:02;31.60;15.80
40630;DHT22;26329;40.388;-3.710;2022-07-15T01:10:06;31.50;15.80
40630;DHT22;26329;40.388;-3.710;2022-07-15T01:20:09;31.30;15.90
40630;DHT22;26329;40.388;-3.710;2022-07-15T01:30:11;31.20;16.20
40630;DHT22;26329;40.388;-3.710;2022-07-15T01:40:14;31.10;16.40
40630;DHT22;26329;40.388;-3.710;2022-07-15T01:50:21;30.90;16.60
40630;DHT22;26329;40.388;-3.710;2022-07-15T02:00:24;30.80;16.70
40630;DHT22;26329;40.388;-3.710;2022-07-15T02:10:30;30.70;16.90
40630;DHT22;26329;40.388;-3.710;2022-07-15T02:20:44;30.60;17.20
40630;DHT22;26329;40.388;-3.710;2022-07-15T02:30:49;30.40;17.70
40630;DHT22;26329;40.388;-3.710;2022-07-15T02:40:52;30.40;17.60
40630;DHT22;26329;40.388;-3.710;2022-07-15T02:50:55;30.20;17.90
40630;DHT22;26329;40.388;-3.710;2022-07-15T03:00:59;30.20;18.80
40630;DHT22;26329;40.388;-3.710;2022-07-15T03:11:02;30.10;19.50
40630;DHT22;26329;40.388;-3.710;2022-07-15T03:21:06;30.00;19.70
40630;DHT22;26329;40.388;-3.710;2022-07-15T03:31:08;29.80;20.20
40630;DHT22;26329;40.388;-3.710;2022-07-15T03:41:10;29.60;21.00
40630;DHT22;26329;40.388;-3.710;2022-07-15T03:51:12;29.20;21.10
40630;DHT22;26329;40.388;-3.710;2022-07-15T04:01:14;28.90;21.50
40630;DHT22;26329;40.388;-3.710;2022-07-15T04:11:18;28.70;21.80
40630;DHT22;26329;40.388;-3.710;2022-07-15T04:21:20;28.40;21.90
40630;DHT22;26329;40.388;-3.710;2022-07-15T04:31:22;28.30;22.20
40630;DHT22;26329;40.388;-3.710;2022-07-15T04:41:24;28.20;22.70
40630;DHT22;26329;40.388;-3.710;2022-07-15T04:51:26;28.10;23.20
40630;DHT22;26329;40.388;-3.710;2022-07-15T05:01:28;28.00;23.70
40630;DHT22;26329;40.388;-3.710;2022-07-15T05:11:30;27.80;24.40
40630;DHT22;26329;40.388;-3.710;2022-07-15T05:21:33;27.70;24.90
40630;DHT22;26329;40.388;-3.710;2022-07-15T05:31:34;27.70;25.10
40630;DHT22;26329;40.388;-3.710;2022-07-15T05:41:36;27.80;25.30
40630;DHT22;26329;40.388;-3.710;2022-07-15T05:51:39;27.90;25.60
40630;DHT22;26329;40.388;-3.710;2022-07-15T06:01:41;28.00;25.60
40630;DHT22;26329;40.388;-3.710;2022-07-15T06:11:44;28.20;25.40
40630;DHT22;26329;40.388;-3.710;2022-07-15T06:21:46;28.40;25.50
40630;DHT22;26329;40.388;-3.710;2022-07-15T06:31:48;28.60;25.90
40630;DHT22;26329;40.388;-3.710;2022-07-15T06:41:50;28.70;25.90
40630;DHT22;26329;40.388;-3.710;2022-07-15T06:51:51;28.90;25.40
40630;DHT22;26329;40.388;-3.710;2022-07-15T07:01:53;29.10;25.00
40630;DHT22;26329;40.388;-3.710;2022-07-15T07:11:55;29.60;24.80
40630;DHT22;26329;40.388;-3.710;2022-07-15T07:21:57;30.30;24.00
40630;DHT22;26329;40.388;-3.710;2022-07-15T07:31:58;30.90;23.50
40630;DHT22;26329;40.388;-3.710;2022-07-15T07:42:00;31.50;23.20
40630;DHT22;26329;40.388;-3.710;2022-07-15T07:52:03;31.80;23.20
40630;DHT22;26329;40.388;-3.710;2022-07-15T08:02:06;32.30;23.20
40630;DHT22;26329;40.388;-3.710;2022-07-15T08:12:07;32.60;23.00
40630;DHT22;26329;40.388;-3.710;2022-07-15T08:22:09;32.90;23.30
40630;DHT22;26329;40.388;-3.710;2022-07-15T08:32:11;33.10;23.10
40630;DHT22;26329;40.388;-3.710;2022-07-15T08:42:13;33.10;23.70
40630;DHT22;26329;40.388;-3.710;2022-07-15T08:52:17;33.40;23.30
40630;DHT22;26329;40.388;-3.710;2022-07-15T09:02:20;33.60;22.80
40630;DHT22;26329;40.388;-3.710;2022-07-15T09:12:22;33.80;22.50
40630;DHT22;26329;40.388;-3.710;2022-07-15T09:22:24;34.10;22.20
40630;DHT22;26329;40.388;-3.710;2022-07-15T09:32:26;34.50;22.20
40630;DHT22;26329;40.388;-3.710;2022-07-15T09:43:04;34.80;21.90
40630;DHT22;26329;40.388;-3.710;2022-07-15T09:53:12;35.20;21.80
40630;DHT22;26329;40.388;-3.710;2022-07-15T10:03:16;35.40;21.60
40630;DHT22;26329;40.388;-3.710;2022-07-15T10:44:10;35.90;21.20
40630;DHT22;26329;40.388;-3.710;2022-07-15T11:04:24;36.40;20.60
40630;DHT22;26329;40.388;-3.710;2022-07-15T11:14:57;36.60;20.40
40630;DHT22;26329;40.388;-3.710;2022-07-15T11:24:59;36.60;20.30
40630;DHT22;26329;40.388;-3.710;2022-07-15T11:35:01;36.60;20.30
40630;DHT22;26329;40.388;-3.710;2022-07-15T11:45:04;36.60;20.30
40630;DHT22;26329;40.388;-3.710;2022-07-15T11:55:06;36.90;19.70
40630;DHT22;26329;40.388;-3.710;2022-07-15T12:05:08;37.00;19.90
40630;DHT22;26329;40.388;-3.710;2022-07-15T12:15:10;37.30;19.10
40630;DHT22;26329;40.388;-3.710;2022-07-15T12:25:18;37.60;18.60
40630;DHT22;26329;40.388;-3.710;2022-07-15T12:35:20;37.60;18.40
40630;DHT22;26329;40.388;-3.710;2022-07-15T12:45:23;37.60;17.50
40630;DHT22;26329;40.388;-3.710;2022-07-15T12:55:28;37.80;18.10
40630;DHT22;26329;40.388;-3.710;2022-07-15T13:05:33;38.10;17.90
40630;DHT22;26329;40.388;-3.710;2022-07-15T13:15:36;38.10;17.10
40630;DHT22;26329;40.388;-3.710;2022-07-15T13:25:38;38.30;17.20
40630;DHT22;26329;40.388;-3.710;2022-07-15T13:35:42;38.20;17.10
40630;DHT22;26329;40.388;-3.710;2022-07-15T13:45:43;38.40;17.30
40630;DHT22;26329;40.388;-3.710;2022-07-15T13:55:46;38.30;17.30
40630;DHT22;26329;40.388;-3.710;2022-07-15T14:05:47;38.30;17.10
40630;DHT22;26329;40.388;-3.710;2022-07-15T14:15:49;38.50;16.40
40630;DHT22;26329;40.388;-3.710;2022-07-15T14:25:52;38.50;16.60
40630;DHT22;26329;40.388;-3.710;2022-07-15T14:35:53;38.60;16.00
40630;DHT22;26329;40.388;-3.710;2022-07-15T14:45:54;38.60;15.80
40630;DHT22;26329;40.388;-3.710;2022-07-15T14:55:56;38.70;15.80
40630;DHT22;26329;40.388;-3.710;2022-07-15T15:05:57;38.80;15.70
40630;DHT22;26329;40.388;-3.710;2022-07-15T15:15:58;38.70;15.20
40630;DHT22;26329;40.388;-3.710;2022-07-15T15:36:21;38.90;15.10
40630;DHT22;26329;40.388;-3.710;2022-07-15T15:46:23;38.60;15.10
40630;DHT22;26329;40.388;-3.710;2022-07-15T15:56:24;38.80;14.40
40630;DHT22;26329;40.388;-3.710;2022-07-15T16:06:26;38.80;13.90
40630;DHT22;26329;40.388;-3.710;2022-07-15T16:16:28;38.70;13.80
40630;DHT22;26329;40.388;-3.710;2022-07-15T16:26:29;38.80;14.60
40630;DHT22;26329;40.388;-3.710;2022-07-15T16:36:31;38.60;14.50
40630;DHT22;26329;40.388;-3.710;2022-07-15T16:46:32;38.50;13.50
40630;DHT22;26329;40.388;-3.710;2022-07-15T16:56:33;38.50;13.50
40630;DHT22;26329;40.388;-3.710;2022-07-15T17:06:35;38.60;13.50
40630;DHT22;26329;40.388;-3.710;2022-07-15T17:16:37;38.50;13.40
40630;DHT22;26329;40.388;-3.710;2022-07-15T17:26:39;38.50;13.30
40630;DHT22;26329;40.388;-3.710;2022-07-15T17:36:40;38.30;14.00
40630;DHT22;26329;40.388;-3.710;2022-07-15T17:46:43;38.50;13.60
40630;DHT22;26329;40.388;-3.710;2022-07-15T17:56:45;38.30;14.00
40630;DHT22;26329;40.388;-3.710;2022-07-15T18:06:46;38.30;13.60
40630;DHT22;26329;40.388;-3.710;2022-07-15T18:16:48;38.40;13.30
40630;DHT22;26329;40.388;-3.710;2022-07-15T18:26:50;38.30;13.40
40630;DHT22;26329;40.388;-3.710;2022-07-15T18:36:51;38.10;13.50
40630;DHT22;26329;40.388;-3.710;2022-07-15T18:46:53;37.90;13.80
40630;DHT22;26329;40.388;-3.710;2022-07-15T18:56:55;37.70;13.90
40630;DHT22;26329;40.388;-3.710;2022-07-15T19:06:56;37.60;14.20
40630;DHT22;26329;40.388;-3.710;2022-07-15T19:16:57;37.40;14.40
40630;DHT22;26329;40.388;-3.710;2022-07-15T19:26:59;37.10;14.60
40630;DHT22;26329;40.388;-3.710;2022-07-15T19:37:00;36.80;15.00
40630;DHT22;26329;40.388;-3.710;2022-07-15T19:47:02;36.60;15.10
40630;DHT22;26329;40.388;-3.710;2022-07-15T19:57:03;36.30;15.40
40630;DHT22;26329;40.388;-3.710;2022-07-15T20:07:04;36.10;15.50
40630;DHT22;26329;40.388;-3.710;2022-07-15T20:17:06;35.90;15.60
40630;DHT22;26329;40.388;-3.710;2022-07-15T20:27:07;35.70;15.90
40630;DHT22;26329;40.388;-3.710;2022-07-15T20:37:12;35.50;16.40
40630;DHT22;26329;40.388;-3.710;2022-07-15T20:47:13;35.30;16.40
40630;DHT22;26329;40.388;-3.710;2022-07-15T20:57:15;35.10;16.50
40630;DHT22;26329;40.388;-3.710;2022-07-15T21:07:16;34.90;16.70
40630;DHT22;26329;40.388;-3.710;2022-07-15T21:17:18;34.70;17.00
40630;DHT22;26329;40.388;-3.710;2022-07-15T21:27:20;34.60;17.00
40630;DHT22;26329;40.388;-3.710;2022-07-15T21:37:22;34.50;17.10
40630;DHT22;26329;40.388;-3.710;2022-07-15T21:47:23;34.30;17.50
40630;DHT22;26329;40.388;-3.710;2022-07-15T21:57:25;34.20;17.70
40630;DHT22;26329;40.388;-3.710;2022-07-15T22:07:26;34.10;17.90
40630;DHT22;26329;40.388;-3.710;2022-07-15T22:17:28;33.90;18.00
40630;DHT22;26329;40.388;-3.710;2022-07-15T22:27:30;33.80;18.40
40630;DHT22;26329;40.388;-3.710;2022-07-15T22:37:31;33.70;18.60
40630;DHT22;26329;40.388;-3.710;2022-07-15T22:47:33;33.50;18.90
40630;DHT22;26329;40.388;-3.710;2022-07-15T22:57:35;33.40;19.20
40630;DHT22;26329;40.388;-3.710;2022-07-15T23:07:37;33.20;19.60
40630;DHT22;26329;40.388;-3.710;2022-07-15T23:17:38;33.10;19.80
40630;DHT22;26329;40.388;-3.710;2022-07-15T23:27:40;33.00;21.50
40630;DHT22;26329;40.388;-3.710;2022-07-15T23:37:41;32.80;22.30
40630;DHT22;26329;40.388;-3.710;2022-07-15T23:47:43;32.60;22.90
40630;DHT22;26329;40.388;-3.710;2022-07-15T23:57:45;32.50;23.20
